Time;durP1;ratioP1;P1;durP2;ratioP2;P2;SDS_P1;SDS_P2;PMS_P1;PMS_P2;Temp;Humidity;BMP_temperature;BMP_pressure;BME280_temperature;BME280_humidity;BME280_pressure;Samples;Min_cycle;Max_cycle;Signal;HPM_P1;HPM_P2
2022/01/07 00:00:42;;;;;;;0.90;0.60;;;;;;;2.08;72.71;98944.41;1768675;79;21574;-58
2022/01/07 00:03:12;;;;;;;0.80;0.60;;;;;;;2.11;72.69;98955.41;1764040;79;21025;-57
2022/01/07 00:08:00;;;;;;;1.10;0.67;;;;;;;2.15;72.51;98953.08;1851468;75;27633;-52
2022/01/07 00:10:26;;;;;;;1.17;0.60;;;;;;;2.11;72.49;98968.23;1818146;77;22220;-55
2022/01/07 00:12:53;;;;;;;1.30;0.70;;;;;;;2.10;72.49;98966.48;1820043;77;21288;-58
2022/01/07 00:15:20;;;;;;;1.80;0.70;;;;;;;2.09;72.49;98971.37;1817728;77;21511;-54
2022/01/07 00:17:46;;;;;;;1.17;0.80;;;;;;;2.10;72.52;98973.13;1826053;77;21465;-57
2022/01/07 00:20:13;;;;;;;1.77;0.70;;;;;;;2.11;72.52;98974.00;1821586;76;20985;-53
2022/01/07 00:22:40;;;;;;;1.30;1.10;;;;;;;2.11;72.44;98981.52;1819841;77;21134;-55
2022/01/07 00:25:08;;;;;;;2.70;1.20;;;;;;;2.11;72.38;98988.59;1816977;77;21159;-54
2022/01/07 00:27:35;;;;;;;1.97;1.37;;;;;;;2.11;72.31;98993.45;1789024;77;21034;-54
2022/01/07 00:30:01;;;;;;;1.77;1.10;;;;;;;2.11;72.26;98989.47;1820225;77;20961;-53
2022/01/07 00:32:27;;;;;;;1.87;1.03;;;;;;;2.11;72.21;98997.89;1820805;77;21042;-55
2022/01/07 00:34:53;;;;;;;1.63;0.90;;;;;;;2.09;72.19;98996.59;1821925;77;22634;-53
2022/01/07 00:37:20;;;;;;;2.20;1.20;;;;;;;2.11;72.04;98995.23;1819800;76;21500;-52
2022/01/07 00:39:47;;;;;;;1.60;1.00;;;;;;;2.10;71.86;98998.34;1823752;77;20963;-53
2022/01/07 00:42:14;;;;;;;1.27;1.03;;;;;;;2.09;71.73;98999.25;1818620;77;21018;-52
2022/01/07 00:44:40;;;;;;;1.00;0.80;;;;;;;2.08;71.60;99002.81;1823860;77;21084;-53
2022/01/07 00:47:06;;;;;;;1.23;0.90;;;;;;;2.04;71.55;99001.14;1818190;77;21532;-55
2022/01/07 00:49:33;;;;;;;0.90;0.70;;;;;;;2.03;71.45;99003.41;1824396;76;22594;-57
2022/01/07 00:52:01;;;;;;;2.43;1.07;;;;;;;2.02;71.38;99010.08;1816849;77;21022;-56
2022/01/07 00:54:27;;;;;;;1.83;0.70;;;;;;;2.02;71.14;99004.31;1817672;76;21069;-54
2022/01/07 00:56:54;;;;;;;0.90;0.60;;;;;;;2.01;70.92;99003.89;1796138;77;21105;-56
2022/01/07 00:59:20;;;;;;;0.93;0.60;;;;;;;2.01;70.65;99005.22;1789779;78;21131;-54
2022/01/07 01:01:47;;;;;;;1.17;0.60;;;;;;;2.00;70.47;99016.74;1788820;78;21155;-53
2022/01/07 01:04:14;;;;;;;0.63;0.40;;;;;;;2.00;70.19;99004.80;1788376;78;21060;-58
2022/01/07 01:06:41;;;;;;;0.70;0.43;;;;;;;2.01;70.05;99000.36;1792841;78;20956;-56
2022/01/07 01:09:08;;;;;;;0.70;0.40;;;;;;;2.03;69.87;99014.02;1791154;78;20871;-59
2022/01/07 01:11:35;;;;;;;1.13;0.53;;;;;;;2.02;69.59;99003.44;1787663;78;20906;-60
2022/01/07 01:14:01;;;;;;;1.10;0.47;;;;;;;2.02;69.43;99011.41;1790496;78;21089;-58
2022/01/07 01:16:27;;;;;;;0.70;0.40;;;;;;;2.02;69.26;99013.60;1791061;78;20840;-55
2022/01/07 01:18:54;;;;;;;1.07;0.50;;;;;;;2.03;69.12;99008.72;1788780;78;20928;-55
2022/01/07 01:21:20;;;;;;;0.60;0.40;;;;;;;2.05;68.81;99008.19;1788353;78;20907;-58
2022/01/07 01:23:47;;;;;;;1.37;0.40;;;;;;;2.04;68.45;99014.90;1793159;78;20892;-58
2022/01/07 01:26:13;;;;;;;0.77;0.50;;;;;;;2.02;68.35;99010.08;1795805;78;21076;-55
2022/01/07 01:28:39;;;;;;;0.53;0.40;;;;;;;2.00;68.21;99007.91;1793516;78;20859;-55
2022/01/07 01:31:06;;;;;;;0.60;0.47;;;;;;;1.97;68.15;99015.48;1790887;78;20875;-58
2022/01/07 01:33:32;;;;;;;0.70;0.50;;;;;;;1.95;68.08;99021.31;1795313;78;20918;-59
2022/01/07 01:35:59;;;;;;;1.00;0.50;;;;;;;1.92;68.05;99021.38;1788393;78;20914;-58
2022/01/07 01:38:27;;;;;;;0.83;0.50;;;;;;;1.89;67.96;99036.03;1791447;78;21071;-58
2022/01/07 01:40:54;;;;;;;2.10;0.50;;;;;;;1.83;68.02;99027.78;1795692;78;20977;-56
2022/01/07 01:43:20;;;;;;;0.70;0.50;;;;;;;1.80;68.08;99047.75;1759994;78;21031;-61
2022/01/07 01:45:47;;;;;;;1.30;0.60;;;;;;;1.78;68.08;99056.67;1792572;78;21104;-58
2022/01/07 01:48:13;;;;;;;0.80;0.50;;;;;;;1.78;68.26;99068.17;1792566;78;21328;-55
2022/01/07 01:50:40;;;;;;;0.70;0.50;;;;;;;1.78;68.33;99064.64;1790382;78;22612;-55
2022/01/07 01:53:06;;;;;;;0.70;0.50;;;;;;;1.78;68.26;99069.95;1787258;78;21656;-56
2022/01/07 01:55:33;;;;;;;0.67;0.40;;;;;;;1.78;68.27;99071.27;1792508;78;21033;-54
2022/01/07 01:57:59;;;;;;;0.77;0.50;;;;;;;1.76;68.31;99064.67;1785146;78;21029;-59
2022/01/07 02:00:27;;;;;;;0.70;0.47;;;;;;;1.77;68.35;99065.55;1787196;78;21072;-60
2022/01/07 02:02:54;;;;;;;0.60;0.30;;;;;;;1.79;68.43;99071.20;1791674;78;21090;-58
2022/01/07 02:05:20;;;;;;;0.80;0.40;;;;;;;1.78;68.36;99074.80;1797679;78;20994;-56
2022/01/07 02:07:47;;;;;;;0.50;0.40;;;;;;;1.76;68.42;99071.30;1790865;78;21011;-54
2022/01/07 02:10:15;;;;;;;0.70;0.30;;;;;;;1.75;68.53;99084.59;1791577;78;21100;-55
2022/01/07 02:12:41;;;;;;;0.53;0.33;;;;;;;1.73;68.56;99078.00;1796351;78;21035;-59
2022/01/07 02:15:09;;;;;;;0.30;0.30;;;;;;;1.72;68.50;99087.31;1796685;78;21158;-60
2022/01/07 02:17:43;;;;;;;0.57;0.30;;;;;;;1.67;68.66;99094.52;1790781;78;21033;-59
2022/01/07 02:20:10;;;;;;;0.40;0.20;;;;;;;1.64;68.83;99088.81;1798882;77;22155;-59
2022/01/07 02:22:36;;;;;;;0.30;0.20;;;;;;;1.65;68.88;99093.22;1796683;78;21319;-60
2022/01/07 02:25:03;;;;;;;0.40;0.30;;;;;;;1.63;68.96;99092.38;1796088;78;21254;-59
2022/01/07 02:27:30;;;;;;;0.40;0.20;;;;;;;1.61;69.09;99095.99;1792084;78;22514;-59
2022/01/07 02:29:58;;;;;;;0.30;0.20;;;;;;;1.62;69.16;99104.34;1791745;77;20922;-59
2022/01/07 02:32:24;;;;;;;0.30;0.20;;;;;;;1.59;69.25;99103.11;1800135;78;21263;-60
2022/01/07 02:34:50;;;;;;;0.40;0.20;;;;;;;1.55;69.36;99108.92;1796261;78;21014;-59
2022/01/07 02:37:16;;;;;;;0.40;0.20;;;;;;;1.51;69.52;99108.13;1790589;77;21119;-59
2022/01/07 02:39:45;;;;;;;0.50;0.30;;;;;;;1.51;69.64;99119.20;1790759;78;21520;-60
2022/01/07 02:42:11;;;;;;;0.50;0.20;;;;;;;1.49;69.75;99113.92;1795288;78;21317;-59
2022/01/07 02:44:38;;;;;;;1.07;0.27;;;;;;;1.49;69.88;99111.72;1790614;78;21122;-58
2022/01/07 02:47:04;;;;;;;0.43;0.20;;;;;;;1.50;70.12;99120.97;1792381;78;21049;-59
2022/01/07 02:49:31;;;;;;;0.20;0.17;;;;;;;1.48;70.57;99135.16;1791662;77;21037;-59
2022/01/07 02:51:57;;;;;;;0.30;0.20;;;;;;;1.46;71.22;99136.52;1791629;78;22788;-59
2022/01/07 02:54:23;;;;;;;1.13;0.20;;;;;;;1.45;71.86;99145.83;1793635;77;21295;-59
2022/01/07 02:56:50;;;;;;;0.77;0.30;;;;;;;1.40;72.40;99156.55;1797615;78;20922;-59
2022/01/07 02:59:16;;;;;;;0.30;0.30;;;;;;;1.36;73.07;99155.33;1797192;78;21032;-60
2022/01/07 03:01:42;;;;;;;2.00;0.20;;;;;;;1.32;73.54;99157.16;1788851;78;21033;-59
2022/01/07 03:04:08;;;;;;;0.40;0.20;;;;;;;1.30;74.03;99160.28;1795381;78;21060;-60
2022/01/07 03:06:35;;;;;;;1.07;0.20;;;;;;;1.32;74.49;99166.89;1792267;77;21021;-59
2022/01/07 03:09:02;;;;;;;0.40;0.33;;;;;;;1.33;74.85;99166.86;1792151;78;21498;-59
2022/01/07 03:11:28;;;;;;;0.40;0.20;;;;;;;1.31;75.14;99169.98;1787271;77;21282;-59
2022/01/07 03:13:54;;;;;;;0.40;0.20;;;;;;;1.30;75.36;99181.50;1791129;78;21469;-60
2022/01/07 03:16:22;;;;;;;0.20;0.20;;;;;;;1.25;75.53;99186.03;1793469;78;21277;-59
2022/01/07 03:18:49;;;;;;;0.33;0.27;;;;;;;1.21;75.70;99183.00;1796448;78;21455;-59
2022/01/07 03:21:15;;;;;;;0.40;0.30;;;;;;;1.20;75.92;99190.98;1793708;78;21076;-59
2022/01/07 03:23:42;;;;;;;0.40;0.30;;;;;;;1.20;76.07;99201.58;1802280;78;20990;-59
2022/01/07 03:26:08;;;;;;;0.50;0.40;;;;;;;1.18;76.18;99210.05;1792161;78;21056;-60
2022/01/07 03:28:35;;;;;;;0.50;0.40;;;;;;;1.16;76.27;99213.17;1800777;77;21169;-59
2022/01/07 03:31:02;;;;;;;0.33;0.30;;;;;;;1.13;76.41;99216.29;1791708;78;21723;-60
2022/01/07 03:33:28;;;;;;;0.60;0.30;;;;;;;1.14;76.47;99215.39;1787985;78;21624;-60
2022/01/07 03:35:55;;;;;;;0.43;0.20;;;;;;;1.16;76.53;99228.63;1792706;78;21570;-60
2022/01/07 03:38:21;;;;;;;0.30;0.20;;;;;;;1.19;76.43;99233.88;1795217;78;21021;-59
2022/01/07 03:40:48;;;;;;;0.20;0.17;;;;;;;1.18;76.32;99237.43;1800238;78;21080;-59
2022/01/07 03:43:15;;;;;;;0.20;0.20;;;;;;;1.17;76.11;99240.98;1797768;78;21666;-60
2022/01/07 03:45:41;;;;;;;0.57;0.20;;;;;;;1.14;75.91;99247.20;1795615;77;21073;-59
2022/01/07 03:48:07;;;;;;;0.30;0.20;;;;;;;1.13;75.80;99248.55;1790984;78;22257;-59
2022/01/07 03:50:34;;;;;;;0.13;0.10;;;;;;;1.15;75.64;99240.13;1793491;78;21312;-59
2022/01/07 03:53:00;;;;;;;0.10;0.10;;;;;;;1.15;75.41;99249.41;1792544;78;22412;-59
2022/01/07 03:55:29;;;;;;;0.10;0.10;;;;;;;1.14;75.16;99255.16;1787664;78;21354;-60
2022/01/07 03:57:55;;;;;;;0.23;0.13;;;;;;;1.13;74.80;99252.08;1794779;78;20940;-59
2022/01/07 04:00:32;;;;;;;0.27;0.17;;;;;;;1.11;74.62;99253.00;1795552;78;21057;-59
2022/01/07 04:02:56;;;;;;;0.30;0.20;;;;;;;1.09;74.34;99258.35;1797480;77;21334;-59
2022/01/07 04:05:23;;;;;;;0.17;0.10;;;;;;;1.07;74.19;99264.58;1795355;78;22955;-60
2022/01/07 04:07:50;;;;;;;0.20;0.10;;;;;;;1.05;74.06;99261.06;1793521;78;20914;-59
2022/01/07 04:10:16;;;;;;;0.30;0.10;;;;;;;1.04;73.76;99268.59;1794550;78;20950;-59
2022/01/07 04:12:42;;;;;;;0.20;0.10;;;;;;;1.03;73.58;99273.46;1787550;78;20910;-59
2022/01/07 04:15:09;;;;;;;0.30;0.10;;;;;;;1.04;73.41;99276.55;1762786;78;20981;-59
2022/01/07 04:17:44;;;;;;;0.17;0.10;;;;;;;1.03;73.30;99278.31;1789569;78;21137;-60
2022/01/07 04:20:13;;;;;;;0.30;0.10;;;;;;;1.04;73.17;99281.84;1793919;78;21003;-59
2022/01/07 04:22:40;;;;;;;0.20;0.10;;;;;;;1.04;73.12;99280.52;1791352;78;20917;-59
2022/01/07 04:25:12;;;;;;;0.50;0.20;;;;;;;1.04;73.14;99284.49;1790637;78;20918;-59
2022/01/07 04:27:38;;;;;;;0.90;0.20;;;;;;;1.05;73.16;99292.42;1789976;78;20990;-59
2022/01/07 04:30:05;;;;;;;0.20;0.20;;;;;;;1.06;73.24;99311.41;1797972;78;21759;-59
2022/01/07 04:32:32;;;;;;;0.63;0.20;;;;;;;1.06;73.39;99302.13;1791849;78;21385;-59
2022/01/07 04:34:58;;;;;;;0.30;0.20;;;;;;;1.04;73.51;99309.67;1792951;78;20929;-59
2022/01/07 04:37:24;;;;;;;0.30;0.20;;;;;;;1.02;73.68;99311.50;1792572;78;21440;-59
2022/01/07 04:39:51;;;;;;;0.40;0.20;;;;;;;1.00;73.88;99310.20;1790156;78;21405;-59
2022/01/07 04:42:17;;;;;;;3.90;0.20;;;;;;;0.99;74.05;99310.22;1741193;80;21526;-59
2022/01/07 04:44:43;;;;;;;0.30;0.27;;;;;;;0.95;74.19;99309.38;1739828;81;21049;-59
2022/01/07 04:47:09;;;;;;;0.40;0.20;;;;;;;0.94;74.36;99318.67;1737401;80;21116;-59
2022/01/07 04:49:36;;;;;;;0.20;0.10;;;;;;;0.93;74.45;99324.91;1735997;80;21728;-58
2022/01/07 04:52:04;;;;;;;0.30;0.20;;;;;;;0.91;74.62;99338.62;1737222;80;21104;-58
2022/01/07 04:54:31;;;;;;;0.37;0.20;;;;;;;0.89;74.65;99329.36;1737280;80;21266;-59
2022/01/07 04:56:57;;;;;;;0.30;0.20;;;;;;;0.88;74.69;99335.56;1738659;80;21056;-59
2022/01/07 04:59:23;;;;;;;0.20;0.20;;;;;;;0.84;75.00;99335.64;1737331;80;21014;-59
2022/01/07 05:01:50;;;;;;;0.50;0.20;;;;;;;0.82;75.33;99334.78;1737724;80;21012;-58
2022/01/07 05:04:16;;;;;;;0.23;0.20;;;;;;;0.76;75.53;99347.69;1736910;80;21045;-57
2022/01/07 05:06:47;;;;;;;0.30;0.20;;;;;;;0.73;75.68;99338.00;1740565;80;23389;-59
2022/01/07 05:09:16;;;;;;;0.50;0.20;;;;;;;0.71;75.85;99354.36;1717566;81;21095;-59
2022/01/07 05:11:48;;;;;;;0.37;0.20;;;;;;;0.66;75.98;99364.16;1708053;81;21976;-59
2022/01/07 05:14:14;;;;;;;0.50;0.20;;;;;;;0.64;76.12;99371.25;1710119;81;21656;-60
2022/01/07 05:16:42;;;;;;;0.40;0.20;;;;;;;0.63;76.29;99370.82;1714879;81;21464;-59
2022/01/07 05:19:09;;;;;;;0.30;0.20;;;;;;;0.62;76.41;99373.48;1706860;81;21596;-59
2022/01/07 05:21:36;;;;;;;0.33;0.20;;;;;;;0.61;76.56;99376.58;1703899;81;21067;-59
2022/01/07 05:24:03;;;;;;;0.50;0.30;;;;;;;0.63;76.73;99376.12;1710759;81;22104;-59
2022/01/07 05:26:30;;;;;;;0.33;0.20;;;;;;;0.62;76.88;99381.44;1712372;81;21072;-58
2022/01/07 05:28:57;;;;;;;0.27;0.20;;;;;;;0.61;76.91;99383.65;1707231;81;21450;-58
2022/01/07 05:31:23;;;;;;;0.50;0.30;;;;;;;0.58;76.99;99388.56;1703944;81;22566;-59
2022/01/07 05:33:53;;;;;;;0.47;0.30;;;;;;;0.56;77.11;99393.00;1708881;81;21029;-59
2022/01/07 05:36:20;;;;;;;0.30;0.20;;;;;;;0.56;77.17;99394.32;1705226;81;21047;-58
2022/01/07 05:38:46;;;;;;;0.23;0.20;;;;;;;0.56;77.25;99400.95;1715882;81;21565;-58
2022/01/07 05:41:13;;;;;;;0.40;0.23;;;;;;;0.56;77.31;99416.83;1710257;81;21083;-58
2022/01/07 05:43:39;;;;;;;0.30;0.10;;;;;;;0.55;77.82;99445.53;1714929;81;21758;-57
2022/01/07 05:46:08;;;;;;;0.23;0.10;;;;;;;0.49;78.57;99461.96;1710010;81;21058;-57
2022/01/07 05:48:34;;;;;;;0.10;0.00;;;;;;;0.35;79.27;99463.43;1707511;81;21083;-58
2022/01/07 05:51:00;;;;;;;0.00;0.00;;;;;;;0.18;79.30;99465.39;1705946;81;21679;-58
2022/01/07 05:53:26;;;;;;;0.10;0.00;;;;;;;0.05;79.52;99473.05;1704798;81;21040;-57
2022/01/07 05:55:53;;;;;;;0.20;0.10;;;;;;;-0.07;79.48;99477.56;1706456;81;21150;-58
2022/01/07 06:00:09;;;;;;;0.73;0.10;;;;;;;-0.18;79.98;99491.81;1829076;76;26455;-58
2022/01/07 06:02:41;;;;;;;0.00;0.00;;;;;;;-0.29;79.69;99491.90;1798711;77;21301;-58
2022/01/07 06:05:07;;;;;;;0.30;0.00;;;;;;;-0.32;79.40;99490.59;1800069;77;21579;-58
2022/01/07 06:07:34;;;;;;;0.23;0.03;;;;;;;-0.34;78.98;99485.75;1805164;77;21000;-58
2022/01/07 06:10:01;;;;;;;0.20;0.00;;;;;;;-0.37;78.19;99500.78;1798174;77;21103;-57
2022/01/07 06:12:28;;;;;;;0.10;0.00;;;;;;;-0.41;77.68;99507.86;1801444;77;20960;-58
2022/01/07 06:14:56;;;;;;;0.13;0.10;;;;;;;-0.40;77.18;99508.29;1801690;77;21543;-58
2022/01/07 06:17:22;;;;;;;0.17;0.00;;;;;;;-0.40;76.37;99521.07;1803243;77;21424;-58
2022/01/07 06:19:49;;;;;;;0.10;0.00;;;;;;;-0.40;75.85;99529.00;1800393;78;21624;-57
2022/01/07 06:22:15;;;;;;;0.10;0.00;;;;;;;-0.39;75.24;99529.44;1801332;77;21447;-58
2022/01/07 06:24:41;;;;;;;0.30;0.10;;;;;;;-0.39;74.84;99535.17;1803545;77;21520;-58
2022/01/07 06:27:07;;;;;;;0.23;0.10;;;;;;;-0.37;74.51;99542.66;1804592;77;21412;-58
2022/01/07 06:29:34;;;;;;;0.30;0.10;;;;;;;-0.37;74.19;99534.72;1743732;80;21067;-58
2022/01/07 06:32:00;;;;;;;2.50;0.13;;;;;;;-0.36;73.92;99552.35;1740427;80;21051;-58
2022/01/07 06:34:27;;;;;;;0.30;0.20;;;;;;;-0.35;73.60;99556.75;1742261;80;21047;-57
2022/01/07 06:36:53;;;;;;;0.20;0.10;;;;;;;-0.37;73.41;99566.91;1728157;80;21076;-57
2022/01/07 06:39:20;;;;;;;0.30;0.10;;;;;;;-0.40;73.16;99573.96;1750441;79;21124;-58
2022/01/07 06:41:50;;;;;;;0.40;0.13;;;;;;;-0.42;73.00;99572.20;1750458;79;21163;-57
2022/01/07 06:44:17;;;;;;;0.23;0.10;;;;;;;-0.42;72.97;99582.78;1748435;79;21073;-57
2022/01/07 06:46:44;;;;;;;0.30;0.20;;;;;;;-0.43;72.91;99582.37;1749832;81;21503;-57
2022/01/07 06:49:10;;;;;;;0.20;0.10;;;;;;;-0.42;72.81;99594.69;1749900;79;21072;-57
2022/01/07 06:51:36;;;;;;;0.33;0.20;;;;;;;-0.42;72.84;99597.33;1752534;79;21084;-57
2022/01/07 06:54:03;;;;;;;0.20;0.20;;;;;;;-0.39;72.79;99596.00;1748323;79;21129;-56
2022/01/07 06:56:29;;;;;;;0.43;0.20;;;;;;;-0.37;72.74;99599.52;1741467;79;21582;-56
2022/01/07 06:58:55;;;;;;;0.47;0.20;;;;;;;-0.32;72.71;99598.14;1728736;80;22636;-56
2022/01/07 07:01:21;;;;;;;0.40;0.20;;;;;;;-0.29;72.64;99596.37;1725841;81;22306;-56
2022/01/07 07:03:48;;;;;;;0.43;0.20;;;;;;;-0.27;72.46;99606.95;1728746;81;22538;-56
2022/01/07 07:06:14;;;;;;;0.30;0.17;;;;;;;-0.25;72.41;99617.92;1728282;81;21249;-56
2022/01/07 07:08:40;;;;;;;0.27;0.10;;;;;;;-0.22;72.28;99620.56;1726762;81;21084;-56
2022/01/07 07:11:06;;;;;;;0.40;0.10;;;;;;;-0.20;72.25;99621.88;1730051;81;21140;-56
2022/01/07 07:13:33;;;;;;;0.50;0.20;;;;;;;-0.17;72.10;99628.01;1728838;81;21107;-56
2022/01/07 07:16:00;;;;;;;0.30;0.20;;;;;;;-0.15;72.01;99632.84;1730252;81;21320;-56
2022/01/07 07:18:26;;;;;;;0.90;0.20;;;;;;;-0.11;72.00;99639.89;1726911;82;23301;-55
2022/01/07 07:20:53;;;;;;;0.53;0.20;;;;;;;-0.08;71.90;99646.91;1731299;81;21619;-55
2022/01/07 07:23:19;;;;;;;0.60;0.20;;;;;;;-0.09;71.82;99647.38;1728312;81;21484;-55
2022/01/07 07:25:45;;;;;;;0.93;0.23;;;;;;;-0.06;71.69;99659.24;1727252;81;21470;-55
2022/01/07 07:28:12;;;;;;;0.50;0.20;;;;;;;-0.03;71.60;99659.23;1728337;81;21183;-55
2022/01/07 07:30:40;;;;;;;0.47;0.10;;;;;;;-0.01;71.47;99660.11;1728286;81;21086;-55
2022/01/07 07:33:31;;;;;;;3.07;0.20;;;;;;;0.04;71.26;99653.89;1730833;81;21838;-55
2022/01/07 07:38:13;;;;;;;0.57;0.23;;;;;;;0.06;70.89;99668.88;1729997;81;20945;-55
2022/01/07 07:40:40;;;;;;;0.50;0.20;;;;;;;0.10;70.64;99680.30;1732805;81;21408;-55
2022/01/07 07:43:06;;;;;;;1.07;0.20;;;;;;;0.13;70.37;99683.81;1731720;81;21734;-56
2022/01/07 07:45:32;;;;;;;1.23;0.20;;;;;;;0.15;70.19;99689.10;1729044;81;21657;-56
2022/01/07 07:47:58;;;;;;;0.30;0.20;;;;;;;0.18;69.88;99698.32;1729389;81;21041;-55
2022/01/07 07:50:25;;;;;;;0.30;0.20;;;;;;;0.18;69.68;99695.23;1724530;81;21063;-55
2022/01/07 07:52:53;;;;;;;0.40;0.30;;;;;;;0.19;69.52;99710.23;1728250;81;21028;-55
2022/01/07 07:55:19;;;;;;;0.50;0.20;;;;;;;0.23;69.41;99706.69;1728796;81;21135;-56
2022/01/07 07:57:45;;;;;;;0.97;0.30;;;;;;;0.30;69.08;99720.75;1727488;81;21053;-56
2022/01/07 08:00:14;;;;;;;0.57;0.30;;;;;;;0.30;68.57;99718.10;1713687;82;21064;-55
2022/01/07 08:02:40;;;;;;;0.50;0.30;;;;;;;0.33;68.71;99722.94;1717011;81;20992;-55
2022/01/07 08:05:08;;;;;;;0.57;0.30;;;;;;;0.43;68.53;99740.05;1717122;81;21103;-56
2022/01/07 08:07:35;;;;;;;0.57;0.20;;;;;;;0.47;68.16;99738.71;1690474;83;21086;-55
2022/01/07 08:10:01;;;;;;;0.60;0.30;;;;;;;0.54;68.01;99732.91;1695159;83;20995;-56
2022/01/07 08:12:50;;;;;;;0.63;0.30;;;;;;;0.57;67.85;99743.05;1717971;81;21197;-55
2022/01/07 08:17:40;;;;;;;0.50;0.20;;;;;;;0.59;66.92;99743.92;1720007;81;20895;-56
2022/01/07 08:20:07;;;;;;;0.80;0.20;;;;;;;0.57;65.87;99750.99;1697442;82;21102;-54
2022/01/07 08:22:34;;;;;;;0.63;0.20;;;;;;;0.53;65.68;99761.16;1721809;81;21084;-55
2022/01/07 08:25:00;;;;;;;0.83;0.30;;;;;;;0.52;65.95;99759.40;1716541;81;21522;-56
2022/01/07 08:27:26;;;;;;;0.40;0.23;;;;;;;0.55;65.29;99766.02;1721269;81;21064;-56
2022/01/07 08:29:53;;;;;;;1.23;0.20;;;;;;;0.54;65.40;99779.26;1719886;81;21598;-55
2022/01/07 08:35:05;;;;;;;;;;;;;;;0.52;65.25;99778.38;1697696;82;21120;-55
2022/01/07 08:37:31;;;;;;;0.47;0.20;;;;;;;0.51;65.21;99773.53;1694796;82;20179;-55
2022/01/07 08:39:58;;;;;;;0.50;0.20;;;;;;;0.50;65.11;99790.78;1719941;82;21043;-56
2022/01/07 08:42:25;;;;;;;1.00;0.30;;;;;;;0.46;64.74;99796.53;1719844;81;21159;-56
2022/01/07 08:44:52;;;;;;;0.50;0.20;;;;;;;0.39;64.45;99794.82;1719388;81;22334;-55
2022/01/07 08:47:21;;;;;;;1.23;0.30;;;;;;;0.34;64.22;99800.61;1720875;81;21057;-56
2022/01/07 08:49:48;;;;;;;0.40;0.20;;;;;;;0.33;64.30;99814.73;1717789;81;21533;-55
2022/01/07 08:52:14;;;;;;;0.60;0.30;;;;;;;0.30;64.57;99818.27;1720319;81;21065;-55
2022/01/07 08:54:41;;;;;;;0.80;0.30;;;;;;;0.27;64.85;99830.19;1693236;82;21085;-55
2022/01/07 08:57:07;;;;;;;0.87;0.27;;;;;;;0.26;65.07;99830.19;1723896;81;21995;-55
2022/01/07 08:59:34;;;;;;;1.00;0.23;;;;;;;0.26;64.73;99837.69;1725673;81;21343;-54
2022/01/07 09:02:00;;;;;;;0.80;0.30;;;;;;;0.24;64.94;99831.98;1708722;82;21372;-55
2022/01/07 09:04:26;;;;;;;0.90;0.30;;;;;;;0.20;64.91;99838.17;1714226;81;21067;-56
2022/01/07 09:06:53;;;;;;;0.60;0.30;;;;;;;0.16;64.91;99851.00;1716073;81;21140;-55
2022/01/07 09:09:19;;;;;;;0.97;0.20;;;;;;;0.09;64.62;99854.54;1744780;81;21550;-56
2022/01/07 09:11:46;;;;;;;0.33;0.20;;;;;;;0.04;64.77;99860.31;1739967;81;21062;-54
2022/01/07 09:14:13;;;;;;;0.43;0.27;;;;;;;0.01;64.90;99858.55;1721228;81;21616;-55
2022/01/07 09:16:40;;;;;;;1.07;0.20;;;;;;;-0.01;64.96;99862.55;1724225;81;21076;-55
2022/01/07 09:19:06;;;;;;;1.30;0.30;;;;;;;-0.01;64.92;99861.67;1722010;82;21069;-55
2022/01/07 09:21:33;;;;;;;0.50;0.30;;;;;;;-0.02;64.79;99867.41;1722975;81;21220;-55
2022/01/07 09:24:01;;;;;;;0.57;0.20;;;;;;;-0.03;64.79;99866.96;1721803;82;21018;-54
2022/01/07 09:26:27;;;;;;;0.50;0.50;;;;;;;-0.02;64.56;99868.72;1716715;81;21057;-55
2022/01/07 09:28:54;;;;;;;1.83;0.20;;;;;;;-0.04;63.94;99873.13;1733404;81;20973;-55
2022/01/07 09:31:20;;;;;;;0.87;0.40;;;;;;;-0.07;63.24;99873.58;1739873;81;21116;-55
2022/01/07 09:33:46;;;;;;;0.80;0.30;;;;;;;-0.11;63.01;99883.75;1741788;81;22786;-55
2022/01/07 09:36:13;;;;;;;1.40;0.23;;;;;;;-0.11;62.79;99888.59;1744186;81;20903;-55
2022/01/07 09:38:39;;;;;;;0.60;0.30;;;;;;;-0.10;62.53;99887.72;1744200;80;21355;-55
2022/01/07 09:41:07;;;;;;;1.80;0.30;;;;;;;-0.09;62.23;99888.60;1743565;80;21462;-55
2022/01/07 09:43:33;;;;;;;1.27;0.30;;;;;;;-0.13;61.74;99890.80;1703394;82;21141;-55
2022/01/07 09:46:00;;;;;;;0.60;0.30;;;;;;;-0.20;61.92;99894.36;1727517;81;22669;-55
2022/01/07 09:48:26;;;;;;;0.77;0.30;;;;;;;-0.23;61.98;99911.11;1728561;81;21547;-55
2022/01/07 09:50:52;;;;;;;0.97;0.30;;;;;;;-0.21;61.91;99891.27;1727292;80;21335;-54
2022/01/07 09:53:19;;;;;;;1.03;0.50;;;;;;;-0.23;61.97;99896.56;1727990;81;21471;-54
2022/01/07 09:55:46;;;;;;;0.77;0.30;;;;;;;-0.19;61.80;99902.73;1730529;81;20960;-54
2022/01/07 09:58:13;;;;;;;0.70;0.30;;;;;;;-0.19;61.72;99892.16;1727234;81;21255;-54
2022/01/07 10:00:44;;;;;;;1.60;0.80;;;;;;;-0.22;61.83;99897.00;1713547;81;21102;-54
2022/01/07 10:03:16;;;;;;;0.90;0.20;;;;;;;-0.18;62.03;99893.92;1705509;82;21072;-54
2022/01/07 10:05:49;;;;;;;3.03;0.40;;;;;;;-0.13;61.92;99902.71;1713991;81;21088;-54
2022/01/07 10:08:26;;;;;;;0.60;0.30;;;;;;;-0.14;61.25;99900.95;1718890;81;21052;-53
2022/01/07 10:11:14;;;;;;;0.90;0.40;;;;;;;-0.13;61.69;99899.63;1715202;81;21146;-52
2022/01/07 10:13:43;;;;;;;1.27;0.30;;;;;;;-0.08;61.77;99904.89;1718108;81;20902;-53
2022/01/07 10:16:16;;;;;;;1.07;0.30;;;;;;;-0.04;61.46;99908.86;1721769;81;21389;-52
2022/01/07 10:18:43;;;;;;;0.70;0.30;;;;;;;0.04;61.16;99903.53;1723375;81;20956;-52
2022/01/07 10:21:10;;;;;;;0.80;0.37;;;;;;;0.09;61.09;99906.16;1723631;81;20907;-53
2022/01/07 10:23:36;;;;;;;1.00;0.30;;;;;;;0.18;60.54;99902.14;1697626;82;21130;-52
2022/01/07 10:26:03;;;;;;;0.30;0.20;;;;;;;0.26;59.89;99901.23;1722954;81;20931;-52
2022/01/07 10:28:32;;;;;;;0.40;0.20;;;;;;;0.34;58.92;99901.22;1722019;81;20967;-52
2022/01/07 10:31:02;;;;;;;0.20;0.10;;;;;;;0.39;58.13;99911.33;1721028;81;21527;-51
2022/01/07 10:33:37;;;;;;;0.20;0.13;;;;;;;0.46;57.57;99913.50;1697670;83;21502;-52
2022/01/07 10:36:12;;;;;;;0.50;0.20;;;;;;;0.48;56.61;99913.94;1699560;82;22607;-52
2022/01/07 10:38:54;;;;;;;0.30;0.10;;;;;;;0.54;56.63;99914.34;1698526;82;20966;-52
2022/01/07 10:41:21;;;;;;;1.43;0.10;;;;;;;0.58;55.85;99931.55;1721589;81;20973;-52
2022/01/07 10:43:48;;;;;;;0.43;0.20;;;;;;;0.59;55.56;99925.81;1717725;81;21082;-52
2022/01/07 10:46:24;;;;;;;0.33;0.20;;;;;;;0.60;55.58;99931.07;1716608;81;21127;-51
2022/01/07 10:48:57;;;;;;;0.40;0.20;;;;;;;0.66;55.55;99934.16;1719529;81;23472;-51
2022/01/07 10:51:26;;;;;;;0.30;0.10;;;;;;;0.71;55.22;99933.67;1729176;81;21076;-51
2022/01/07 10:54:01;;;;;;;0.37;0.10;;;;;;;0.74;55.03;99936.31;1723599;81;20913;-51
2022/01/07 10:56:47;;;;;;;1.10;0.10;;;;;;;0.78;55.16;99934.06;1719593;81;22563;-52
2022/01/07 10:59:14;;;;;;;;;;;;;;;0.83;54.50;99930.08;1723490;81;21041;-51
2022/01/07 11:01:56;;;;;;;0.30;0.10;;;;;;;0.87;54.26;99945.05;1719319;81;21016;-51
2022/01/07 11:04:31;;;;;;;0.30;0.10;;;;;;;0.94;53.43;99933.52;1722869;81;21042;-51
2022/01/07 11:06:56;;;;;;;0.40;0.10;;;;;;;0.95;53.39;99932.19;1694226;82;22415;-51
2022/01/07 11:09:22;;;;;;;0.30;0.10;;;;;;;0.95;52.89;99927.33;1719735;81;21124;-51
2022/01/07 11:12:00;;;;;;;0.30;0.10;;;;;;;0.94;52.88;99924.24;1722803;81;21064;-51
2022/01/07 11:14:28;;;;;;;0.40;0.10;;;;;;;0.93;51.62;99926.05;1723787;81;21156;-51
2022/01/07 11:17:03;;;;;;;0.33;0.10;;;;;;;0.92;51.94;99918.09;1723108;81;21085;-51
2022/01/07 11:19:35;;;;;;;0.25;0.10;;;;;;;0.88;52.00;99922.52;1718584;81;21083;-51
2022/01/07 11:22:01;;;;;;;1.07;0.20;;;;;;;0.83;51.94;99925.66;1722728;81;21155;-51
2022/01/07 11:24:36;;;;;;;2.00;0.20;;;;;;;0.72;51.74;99921.75;1692637;82;21111;-51
2022/01/07 11:27:09;;;;;;;0.45;0.20;;;;;;;0.64;52.47;99927.98;1728846;81;21142;-51
2022/01/07 11:29:52;;;;;;;0.50;0.10;;;;;;;0.59;52.84;99928.02;1723984;81;21073;-51
2022/01/07 11:32:31;;;;;;;1.00;0.20;;;;;;;0.61;53.09;99937.25;1721484;81;21581;-52
2022/01/07 11:35:23;;;;;;;0.50;0.20;;;;;;;0.63;53.39;99948.73;1702254;82;21042;-52
2022/01/07 11:37:58;;;;;;;0.63;0.13;;;;;;;0.65;53.55;99947.84;1723081;81;21169;-50
2022/01/07 11:40:40;;;;;;;0.43;0.10;;;;;;;0.69;53.20;99948.25;1688848;82;21100;-51
2022/01/07 11:43:24;;;;;;;1.10;0.10;;;;;;;0.65;53.17;99949.17;1697896;82;21216;-51
2022/01/07 11:45:50;;;;;;;0.50;0.20;;;;;;;0.67;53.37;99946.52;1701267;82;21104;-50
2022/01/07 11:48:23;;;;;;;1.40;0.10;;;;;;;0.72;53.24;99949.56;1699805;82;21139;-51
2022/01/07 11:51:01;;;;;;;0.33;0.10;;;;;;;0.75;53.23;99960.16;1721848;81;21066;-51
2022/01/07 11:53:45;;;;;;;0.20;0.10;;;;;;;0.77;53.23;99948.67;1698869;82;22589;-51
2022/01/07 11:56:13;;;;;;;0.30;0.10;;;;;;;0.78;53.39;99954.38;1696128;82;21684;-51